createdAt,value
2019-03-28T00:00:46.339Z,5.36
2019-03-28T00:01:46.268Z,5.36
2019-03-28T00:02:46.248Z,5.38
2019-03-28T00:03:46.254Z,5.38
2019-03-28T00:04:46.219Z,5.40
2019-03-28T00:05:46.245Z,5.40
2019-03-28T00:06:46.217Z,5.41
2019-03-28T00:07:46.213Z,5.43
2019-03-28T00:08:46.231Z,5.40
2019-03-28T00:09:46.165Z,5.41
2019-03-28T00:10:46.184Z,5.40
2019-03-28T00:11:46.153Z,5.40
2019-03-28T00:12:46.155Z,5.40
2019-03-28T00:13:46.141Z,5.37
2019-03-28T00:14:46.124Z,5.34
2019-03-28T00:15:46.136Z,5.29
2019-03-28T00:16:46.090Z,5.28
2019-03-28T00:17:46.080Z,5.29
2019-03-28T00:18:46.083Z,5.26
2019-03-28T00:19:46.070Z,5.23
2019-03-28T00:20:46.093Z,5.22
2019-03-28T00:21:46.034Z,5.16
2019-03-28T00:22:46.030Z,5.12
2019-03-28T00:23:46.039Z,5.07
2019-03-28T00:24:46.024Z,5.05
2019-03-28T00:25:46.022Z,5.01
2019-03-28T00:26:46.007Z,4.97
2019-03-28T00:27:46.320Z,4.94
2019-03-28T00:28:45.966Z,4.92
2019-03-28T00:29:45.975Z,4.94
2019-03-28T00:30:45.985Z,4.97
2019-03-28T00:31:47.922Z,4.95
2019-03-28T00:32:45.912Z,4.89
2019-03-28T00:33:45.927Z,4.83
2019-03-28T00:34:45.910Z,4.76
2019-03-28T00:35:45.927Z,4.74
2019-03-28T00:36:45.880Z,4.74
2019-03-28T00:37:45.892Z,4.75
2019-03-28T00:38:45.866Z,4.75
2019-03-28T00:39:45.843Z,4.76
2019-03-28T00:40:45.861Z,4.78
2019-03-28T00:41:45.850Z,4.82
2019-03-28T00:42:45.823Z,4.84
2019-03-28T00:43:45.840Z,4.92
2019-03-28T00:44:45.802Z,4.98
2019-03-28T00:45:45.835Z,4.98
2019-03-28T00:46:46.227Z,4.97
2019-03-28T00:47:45.764Z,4.97
2019-03-28T00:48:45.781Z,4.94
2019-03-28T00:49:45.753Z,4.92
2019-03-28T00:50:45.752Z,4.87
2019-03-28T00:51:45.739Z,4.84
2019-03-28T00:52:45.713Z,4.84
2019-03-28T00:53:45.710Z,4.84
2019-03-28T00:54:46.159Z,4.84
2019-03-28T00:55:45.672Z,4.87
2019-03-28T00:56:47.594Z,4.89
2019-03-28T00:57:45.653Z,4.94
2019-03-28T00:58:45.643Z,4.97
2019-03-28T00:59:45.623Z,5.00
2019-03-28T01:00:45.641Z,5.01
2019-03-28T01:01:45.657Z,5.02
2019-03-28T01:02:46.075Z,5.04
2019-03-28T01:03:45.578Z,5.07
2019-03-28T01:04:45.582Z,5.12
2019-03-28T01:05:45.568Z,5.13
2019-03-28T01:06:45.573Z,5.10
2019-03-28T01:07:45.538Z,5.12
2019-03-28T01:08:45.529Z,5.12
2019-03-28T01:09:45.547Z,5.07
2019-03-28T01:10:45.513Z,5.07
2019-03-28T01:11:45.528Z,5.07
2019-03-28T01:12:45.502Z,5.07
2019-03-28T01:13:45.479Z,5.07
2019-03-28T01:14:45.460Z,5.01
2019-03-28T01:15:45.469Z,4.97
2019-03-28T01:16:45.471Z,4.94
2019-03-28T01:17:45.467Z,4.94
2019-03-28T01:18:45.505Z,4.92
2019-03-28T01:19:45.433Z,4.95
2019-03-28T01:20:45.421Z,4.97
2019-03-28T01:21:45.429Z,4.98
2019-03-28T01:22:45.388Z,4.97
2019-03-28T01:23:46.084Z,4.97
2019-03-28T01:24:45.369Z,4.97
2019-03-28T01:25:45.365Z,4.95
2019-03-28T01:26:56.556Z,4.90
2019-03-28T01:27:46.330Z,4.89
2019-03-28T01:28:45.304Z,4.86
2019-03-28T01:29:45.305Z,4.83
2019-03-28T01:30:45.294Z,4.79
2019-03-28T01:31:45.315Z,4.76
2019-03-28T01:32:45.270Z,4.76
2019-03-28T01:33:45.257Z,4.71
2019-03-28T01:34:45.241Z,4.74
2019-03-28T01:35:45.224Z,4.74
2019-03-28T01:36:45.249Z,4.68
2019-03-28T01:37:45.219Z,4.64
2019-03-28T01:38:45.214Z,4.63
2019-03-28T01:39:45.203Z,4.60
2019-03-28T01:40:45.193Z,4.61
2019-03-28T01:41:45.184Z,4.63
2019-03-28T01:42:45.178Z,4.60
2019-03-28T01:43:45.158Z,4.57
2019-03-28T01:44:45.145Z,4.52
2019-03-28T01:45:45.125Z,4.46
2019-03-28T01:46:45.140Z,4.42
2019-03-28T01:47:45.120Z,4.38
2019-03-28T01:48:45.125Z,4.32
2019-03-28T01:49:45.086Z,4.30
2019-03-28T01:50:45.070Z,4.27
2019-03-28T01:51:45.071Z,4.20
2019-03-28T01:52:45.041Z,4.16
2019-03-28T01:53:45.041Z,4.10
2019-03-28T01:54:45.050Z,4.04
2019-03-28T01:55:45.041Z,4.00
2019-03-28T01:56:45.001Z,3.96
2019-03-28T01:57:45.030Z,3.96
2019-03-28T01:58:44.982Z,4.00
2019-03-28T01:59:44.992Z,4.04
2019-03-28T02:00:44.955Z,4.10
2019-03-28T02:01:44.956Z,4.13
2019-03-28T02:02:45.331Z,4.10
2019-03-28T02:03:44.944Z,4.13
2019-03-28T02:04:44.920Z,4.16
2019-03-28T02:05:44.913Z,4.20
2019-03-28T02:06:44.905Z,4.22
2019-03-28T02:07:44.917Z,4.27
2019-03-28T02:08:44.871Z,4.30
2019-03-28T02:09:44.882Z,4.36
2019-03-28T02:10:44.861Z,4.36
2019-03-28T02:11:44.840Z,4.39
2019-03-28T02:12:44.860Z,4.42
2019-03-28T02:13:44.815Z,4.45
2019-03-28T02:14:44.808Z,4.42
2019-03-28T02:15:44.787Z,4.40
2019-03-28T02:16:44.771Z,4.40
2019-03-28T02:17:44.801Z,4.42
2019-03-28T02:18:44.762Z,4.46
2019-03-28T02:19:45.193Z,4.50
2019-03-28T02:20:44.741Z,4.56
2019-03-28T02:21:44.723Z,4.58
2019-03-28T02:22:45.177Z,4.58
2019-03-28T02:23:44.716Z,4.58
2019-03-28T02:24:44.693Z,4.60
2019-03-28T02:25:44.697Z,4.61
2019-03-28T02:26:44.673Z,4.61
2019-03-28T02:27:44.681Z,4.63
2019-03-28T02:28:44.672Z,4.66
2019-03-28T02:29:44.636Z,4.68
2019-03-28T02:30:44.627Z,4.68
2019-03-28T02:31:44.610Z,4.68
2019-03-28T02:32:44.641Z,4.68
2019-03-28T02:33:44.633Z,4.70
2019-03-28T02:34:48.643Z,4.70
2019-03-28T02:35:44.602Z,4.70
2019-03-28T02:36:44.600Z,4.68
2019-03-28T02:37:44.593Z,4.68
2019-03-28T02:38:44.543Z,4.70
2019-03-28T02:39:44.539Z,4.74
2019-03-28T02:40:44.524Z,4.74
2019-03-28T02:41:44.512Z,4.74
2019-03-28T02:42:44.544Z,4.76
2019-03-28T02:43:45.524Z,4.75
2019-03-28T02:44:44.494Z,4.75
2019-03-28T02:45:44.475Z,4.78
2019-03-28T02:46:44.463Z,4.82
2019-03-28T02:47:44.477Z,4.83
2019-03-28T02:48:44.444Z,4.83
2019-03-28T02:49:45.224Z,4.82
2019-03-28T02:50:44.418Z,4.82
2019-03-28T02:51:44.400Z,4.82
2019-03-28T02:52:44.420Z,4.83
2019-03-28T02:53:44.385Z,4.82
2019-03-28T02:54:44.369Z,4.82
2019-03-28T02:55:44.371Z,4.83
2019-03-28T02:56:44.360Z,4.84
2019-03-28T02:57:44.381Z,4.84
2019-03-28T02:58:44.338Z,4.87
2019-03-28T02:59:44.333Z,4.89
2019-03-28T03:00:44.313Z,4.90
2019-03-28T03:01:44.307Z,4.92
2019-03-28T03:02:44.309Z,4.94
2019-03-28T03:03:44.311Z,4.90
2019-03-28T03:04:44.278Z,4.92
2019-03-28T03:05:44.256Z,4.90
2019-03-28T03:06:44.245Z,4.89
2019-03-28T03:07:44.235Z,4.90
2019-03-28T03:08:44.248Z,4.89
2019-03-28T03:09:44.217Z,4.92
2019-03-28T03:10:44.287Z,4.92
2019-03-28T03:11:44.209Z,4.95
2019-03-28T03:12:44.181Z,4.95
2019-03-28T03:13:44.265Z,4.98
2019-03-28T03:14:44.185Z,4.97
2019-03-28T03:15:44.141Z,5.01
2019-03-28T03:16:44.144Z,5.01
2019-03-28T03:17:44.125Z,5.05
2019-03-28T03:18:44.258Z,5.05
2019-03-28T03:19:44.101Z,5.07
2019-03-28T03:20:44.108Z,5.12
2019-03-28T03:21:44.091Z,5.12
2019-03-28T03:22:44.082Z,5.15
2019-03-28T03:23:44.080Z,5.15
2019-03-28T03:24:44.030Z,5.15
2019-03-28T03:25:44.057Z,5.15
2019-03-28T03:26:44.023Z,5.15
2019-03-28T03:27:56.861Z,5.16
2019-03-28T03:28:45.040Z,5.19
2019-03-28T03:29:43.996Z,5.20
2019-03-28T03:30:43.979Z,5.22
2019-03-28T03:31:43.970Z,5.22
2019-03-28T03:32:43.967Z,5.22
2019-03-28T03:33:43.995Z,5.25
2019-03-28T03:34:43.937Z,5.25
2019-03-28T03:35:43.930Z,5.26
2019-03-28T03:36:43.930Z,5.26
2019-03-28T03:37:43.898Z,5.29
2019-03-28T03:38:43.927Z,5.29
2019-03-28T03:39:43.891Z,5.33
2019-03-28T03:40:43.875Z,5.33
2019-03-28T03:41:44.788Z,5.37
2019-03-28T03:42:43.861Z,5.37
2019-03-28T03:43:43.863Z,5.40
2019-03-28T03:44:43.832Z,5.38
2019-03-28T03:45:43.803Z,5.41
2019-03-28T03:46:43.811Z,5.43
2019-03-28T03:47:43.792Z,5.43
2019-03-28T03:48:43.808Z,5.44
2019-03-28T03:49:43.797Z,5.44
2019-03-28T03:50:43.756Z,5.44
2019-03-28T03:51:46.483Z,5.49
2019-03-28T03:52:43.753Z,5.49
2019-03-28T03:53:43.748Z,5.51
2019-03-28T03:54:43.738Z,5.51
2019-03-28T03:55:43.698Z,5.51
2019-03-28T03:56:43.708Z,5.52
2019-03-28T03:57:43.728Z,5.54
2019-03-28T03:58:43.721Z,5.54
2019-03-28T03:59:43.673Z,5.55
2019-03-28T04:00:43.687Z,5.55
2019-03-28T04:01:44.517Z,5.55
2019-03-28T04:02:43.625Z,5.54
2019-03-28T04:03:43.645Z,5.54
2019-03-28T04:04:43.628Z,5.55
2019-03-28T04:05:43.620Z,5.59
2019-03-28T04:06:43.630Z,5.61
2019-03-28T04:07:43.584Z,5.64
2019-03-28T04:08:43.605Z,5.65
2019-03-28T04:09:43.573Z,5.69
2019-03-28T04:10:43.569Z,5.70
2019-03-28T04:11:43.544Z,5.74
2019-03-28T04:12:43.535Z,5.74
2019-03-28T04:13:43.554Z,5.79
2019-03-28T04:14:43.518Z,5.80
2019-03-28T04:15:43.510Z,5.81
2019-03-28T04:16:43.488Z,5.87
2019-03-28T04:17:43.496Z,5.90
2019-03-28T04:18:43.575Z,5.90
2019-03-28T04:19:43.477Z,5.94
2019-03-28T04:20:43.454Z,5.95
2019-03-28T04:21:43.799Z,5.98
2019-03-28T04:22:43.445Z,6.01
2019-03-28T04:23:43.424Z,6.02
2019-03-28T04:24:43.425Z,6.06
2019-03-28T04:25:43.404Z,6.10
2019-03-28T04:26:43.380Z,6.15
2019-03-28T04:27:43.370Z,6.19
2019-03-28T04:28:43.369Z,6.25
2019-03-28T04:29:43.376Z,6.29
2019-03-28T04:30:43.339Z,6.32
2019-03-28T04:31:43.330Z,6.36
2019-03-28T04:32:43.313Z,6.38
2019-03-28T04:33:43.300Z,6.41
2019-03-28T04:34:43.336Z,6.41
2019-03-28T04:35:43.289Z,6.44
2019-03-28T04:36:43.290Z,6.44
2019-03-28T04:37:43.281Z,6.44
2019-03-28T04:38:43.247Z,6.44
2019-03-28T04:39:43.262Z,6.47
2019-03-28T04:40:43.225Z,6.46
2019-03-28T04:41:43.217Z,6.44
2019-03-28T04:42:45.844Z,6.43
2019-03-28T04:43:43.216Z,6.41
2019-03-28T04:44:43.195Z,6.39
2019-03-28T04:45:43.171Z,6.35
2019-03-28T04:46:43.184Z,6.34
2019-03-28T04:47:43.147Z,6.32
2019-03-28T04:48:43.142Z,6.26
2019-03-28T04:49:43.221Z,6.22
2019-03-28T04:50:43.142Z,6.19
2019-03-28T04:51:43.105Z,6.16
2019-03-28T04:52:43.096Z,6.12
2019-03-28T04:53:43.112Z,6.10
2019-03-28T04:54:43.102Z,6.09
2019-03-28T04:55:43.087Z,6.10
2019-03-28T04:56:43.061Z,6.07
2019-03-28T04:57:43.046Z,6.09
2019-03-28T04:58:44.696Z,6.07
2019-03-28T04:59:43.072Z,6.06
2019-03-28T05:00:43.010Z,6.06
2019-03-28T05:01:43.000Z,6.07
2019-03-28T05:02:45.907Z,6.09
2019-03-28T05:03:43.011Z,6.09
2019-03-28T05:04:43.011Z,6.09
2019-03-28T05:05:42.962Z,6.06
2019-03-28T05:06:42.960Z,6.09
2019-03-28T05:07:42.952Z,6.10
2019-03-28T05:08:42.952Z,6.10
2019-03-28T05:09:42.941Z,6.09
2019-03-28T05:10:42.916Z,6.10
2019-03-28T05:11:42.897Z,6.10
2019-03-28T05:12:42.907Z,6.09
2019-03-28T05:13:42.873Z,6.07
2019-03-28T05:14:42.882Z,6.07
2019-03-28T05:15:42.852Z,6.07
2019-03-28T05:16:42.846Z,6.06
2019-03-28T05:17:42.834Z,6.06
2019-03-28T05:18:42.816Z,6.06
2019-03-28T05:19:42.859Z,6.06
2019-03-28T05:20:42.781Z,6.06
2019-03-28T05:21:42.789Z,6.05
2019-03-28T05:22:42.797Z,6.06
2019-03-28T05:23:42.769Z,6.02
2019-03-28T05:24:42.753Z,6.02
2019-03-28T05:25:42.777Z,6.06
2019-03-28T05:26:42.727Z,6.09
2019-03-28T05:27:42.729Z,6.09
2019-03-28T05:28:42.707Z,6.12
2019-03-28T05:29:42.701Z,6.13
2019-03-28T05:30:43.251Z,6.16
2019-03-28T05:31:42.707Z,6.19
2019-03-28T05:32:42.679Z,6.20
2019-03-28T05:33:42.670Z,6.25
2019-03-28T05:34:42.650Z,6.28
2019-03-28T05:35:42.670Z,6.32
2019-03-28T05:36:42.619Z,6.35
2019-03-28T05:37:42.630Z,6.38
2019-03-28T05:38:42.600Z,6.39
2019-03-28T05:39:42.578Z,6.44
2019-03-28T05:40:42.623Z,6.46
2019-03-28T05:41:42.575Z,6.52
2019-03-28T05:42:42.563Z,6.53
2019-03-28T05:43:45.356Z,6.53
2019-03-28T05:44:42.553Z,6.53
2019-03-28T05:45:42.552Z,6.50
2019-03-28T05:46:42.535Z,6.49
2019-03-28T05:47:42.498Z,6.50
2019-03-28T05:48:42.507Z,6.53
2019-03-28T05:49:42.488Z,6.54
2019-03-28T05:50:42.486Z,6.59
2019-03-28T05:51:42.479Z,6.62
2019-03-28T05:52:42.469Z,6.62
2019-03-28T05:53:43.972Z,6.65
2019-03-28T05:54:42.440Z,6.65
2019-03-28T05:55:42.461Z,6.68
2019-03-28T05:56:42.407Z,6.72
2019-03-28T05:57:42.404Z,6.72
2019-03-28T05:58:42.384Z,6.74
2019-03-28T05:59:42.384Z,6.75
2019-03-28T06:00:42.414Z,6.80
2019-03-28T06:01:42.355Z,6.80
2019-03-28T06:02:42.346Z,6.83
2019-03-28T06:03:42.476Z,6.85
2019-03-28T06:04:42.340Z,6.85
2019-03-28T06:05:42.340Z,6.85
2019-03-28T06:06:42.299Z,6.85
2019-03-28T06:07:42.286Z,6.86
2019-03-28T06:08:42.309Z,6.87
2019-03-28T06:09:42.291Z,6.89
2019-03-28T06:10:42.285Z,6.90
2019-03-28T06:11:42.247Z,6.93
2019-03-28T06:12:42.245Z,6.95
2019-03-28T06:13:42.241Z,6.97
2019-03-28T06:14:42.222Z,7.03
2019-03-28T06:15:42.257Z,7.04
2019-03-28T06:16:42.202Z,7.07
2019-03-28T06:17:42.205Z,7.10
2019-03-28T06:18:42.201Z,7.13
2019-03-28T06:19:42.170Z,7.15
2019-03-28T06:20:42.180Z,7.21
2019-03-28T06:21:42.130Z,7.23
2019-03-28T06:22:42.140Z,7.31
2019-03-28T06:23:42.121Z,7.33
2019-03-28T06:24:42.096Z,7.39
2019-03-28T06:25:42.151Z,7.43
2019-03-28T06:26:42.085Z,7.47
2019-03-28T06:27:42.067Z,7.51
2019-03-28T06:28:42.103Z,7.56
2019-03-28T06:29:42.068Z,7.59
2019-03-28T06:30:42.057Z,7.61
2019-03-28T06:31:54.315Z,7.69
2019-03-28T06:32:43.647Z,7.70
2019-03-28T06:33:42.015Z,7.74
2019-03-28T06:34:42.475Z,7.74
2019-03-28T06:35:42.052Z,7.75
2019-03-28T06:36:41.979Z,7.78
2019-03-28T06:37:41.977Z,7.81
2019-03-28T06:38:41.947Z,7.84
2019-03-28T06:39:41.962Z,7.91
2019-03-28T06:40:41.983Z,7.95
2019-03-28T06:41:44.249Z,7.99
2019-03-28T06:42:41.953Z,8.06
2019-03-28T06:43:42.260Z,8.17
2019-03-28T06:44:41.892Z,8.26
2019-03-28T06:45:41.991Z,8.32
2019-03-28T06:46:41.883Z,8.42
2019-03-28T06:47:41.864Z,8.52
2019-03-28T06:48:41.855Z,8.61
2019-03-28T06:49:41.843Z,8.66
2019-03-28T06:50:41.904Z,8.66
2019-03-28T06:51:41.867Z,8.75
2019-03-28T06:52:41.793Z,8.82
2019-03-28T06:53:41.807Z,8.89
2019-03-28T06:54:41.811Z,8.97
2019-03-28T06:55:41.799Z,8.95
2019-03-28T06:56:41.768Z,9.00
2019-03-28T06:57:41.757Z,9.03
2019-03-28T06:58:41.743Z,9.03
2019-03-28T06:59:41.724Z,9.13
2019-03-28T07:00:41.746Z,9.15
2019-03-28T07:01:41.726Z,9.18
2019-03-28T07:02:41.685Z,9.24
2019-03-28T07:03:41.677Z,9.31
2019-03-28T07:04:41.693Z,9.31
2019-03-28T07:05:41.700Z,9.36
2019-03-28T07:06:41.663Z,9.34
2019-03-28T07:07:41.637Z,9.31
2019-03-28T07:08:41.629Z,9.44
2019-03-28T07:09:41.623Z,9.48
2019-03-28T07:10:41.638Z,9.52
2019-03-28T07:11:41.603Z,9.59
2019-03-28T07:12:41.600Z,9.70
2019-03-28T07:13:41.598Z,9.82
2019-03-28T07:14:41.579Z,9.95
2019-03-28T07:15:41.599Z,10.02
2019-03-28T07:16:41.566Z,10.20
2019-03-28T07:17:41.559Z,10.25
2019-03-28T07:18:41.533Z,10.31
2019-03-28T07:19:41.499Z,10.36
2019-03-28T07:20:41.498Z,10.48
2019-03-28T07:21:41.534Z,10.61
2019-03-28T07:22:41.474Z,10.65
2019-03-28T07:23:41.464Z,10.71
2019-03-28T07:24:41.485Z,10.80
2019-03-28T07:25:41.454Z,10.86
2019-03-28T07:26:41.460Z,10.84
2019-03-28T07:27:41.459Z,10.84
2019-03-28T07:28:41.413Z,11.05
2019-03-28T07:29:50.638Z,11.18
2019-03-28T07:30:42.380Z,11.34
2019-03-28T07:31:41.415Z,11.44
2019-03-28T07:32:43.444Z,11.40
2019-03-28T07:33:41.366Z,11.35
2019-03-28T07:34:41.361Z,11.33
2019-03-28T07:35:41.375Z,11.30
2019-03-28T07:36:41.371Z,11.15
2019-03-28T07:37:41.325Z,11.13
2019-03-28T07:38:41.328Z,11.19
2019-03-28T07:39:41.310Z,11.13
2019-03-28T07:40:41.270Z,11.07
2019-03-28T07:41:41.299Z,11.18
2019-03-28T07:42:41.286Z,11.12
2019-03-28T07:43:41.266Z,11.13
2019-03-28T07:44:41.255Z,11.31
2019-03-28T07:45:41.254Z,11.43
2019-03-28T07:46:41.238Z,11.63
2019-03-28T07:47:41.223Z,11.70
2019-03-28T07:48:41.191Z,11.88
2019-03-28T07:49:41.196Z,11.93
2019-03-28T07:50:42.548Z,12.17
2019-03-28T07:51:41.197Z,12.43
2019-03-28T07:52:41.146Z,12.68
2019-03-28T07:53:41.138Z,12.65
2019-03-28T07:54:41.164Z,12.68
2019-03-28T07:55:41.111Z,12.75
2019-03-28T07:56:41.151Z,12.81
2019-03-28T07:57:41.489Z,12.99
2019-03-28T07:58:44.071Z,13.11
2019-03-28T07:59:44.014Z,13.02
2019-03-28T08:00:41.096Z,13.01
2019-03-28T08:01:41.080Z,13.12
2019-03-28T08:02:41.415Z,13.23
2019-03-28T08:03:41.047Z,13.27
2019-03-28T08:04:41.167Z,13.13
2019-03-28T08:05:41.028Z,13.19
2019-03-28T08:06:49.633Z,13.16
2019-03-28T08:07:45.331Z,13.12
2019-03-28T08:08:44.075Z,13.39
2019-03-28T08:09:41.008Z,13.60
2019-03-28T08:10:40.973Z,13.58
2019-03-28T08:11:40.973Z,13.55
2019-03-28T08:12:41.002Z,13.86
2019-03-28T08:13:40.969Z,13.93
2019-03-28T08:14:40.932Z,14.45
2019-03-28T08:15:40.911Z,15.17
2019-03-28T08:16:40.906Z,15.47
2019-03-28T08:17:40.883Z,15.33
2019-03-28T08:18:40.888Z,14.94
2019-03-28T08:19:41.709Z,15.17
2019-03-28T08:20:40.831Z,15.43
2019-03-28T08:21:40.858Z,15.33
2019-03-28T08:22:40.847Z,15.47
2019-03-28T08:23:40.815Z,15.47
2019-03-28T08:24:40.810Z,15.30
2019-03-28T08:25:41.578Z,15.30
2019-03-28T08:26:40.774Z,15.66
2019-03-28T08:27:40.810Z,15.76
2019-03-28T08:28:40.752Z,15.85
2019-03-28T08:29:40.728Z,15.80
2019-03-28T08:30:40.743Z,15.66
2019-03-28T08:31:40.918Z,15.54
2019-03-28T08:32:40.726Z,15.57
2019-03-28T08:33:40.694Z,15.47
2019-03-28T08:34:40.699Z,15.51
2019-03-28T08:35:40.670Z,15.17
2019-03-28T08:36:40.667Z,15.00
2019-03-28T08:37:40.674Z,14.48
2019-03-28T08:38:40.647Z,14.04
2019-03-28T08:39:40.668Z,14.04
2019-03-28T08:40:40.660Z,14.00
2019-03-28T08:41:40.646Z,14.08
2019-03-28T08:42:40.637Z,14.23
2019-03-28T08:43:40.604Z,14.37
2019-03-28T08:44:40.654Z,14.23
2019-03-28T08:45:40.588Z,14.25
2019-03-28T08:46:40.651Z,14.48
2019-03-28T08:47:40.754Z,14.74
2019-03-28T08:48:40.589Z,15.11
2019-03-28T08:49:40.701Z,15.36
2019-03-28T08:50:40.885Z,15.59
2019-03-28T08:51:40.589Z,15.70
2019-03-28T08:52:40.757Z,15.65
2019-03-28T08:53:40.620Z,15.69
2019-03-28T08:54:40.480Z,15.85
2019-03-28T08:55:40.471Z,16.06
2019-03-28T08:56:40.483Z,16.47
2019-03-28T08:57:40.484Z,16.55
2019-03-28T08:58:40.457Z,16.65
2019-03-28T08:59:40.439Z,16.43
2019-03-28T09:00:51.583Z,16.46
2019-03-28T09:01:41.401Z,16.95
2019-03-28T09:02:40.497Z,17.46
2019-03-28T09:03:40.397Z,18.03
2019-03-28T09:04:40.397Z,18.30
2019-03-28T09:05:40.430Z,18.26
2019-03-28T09:06:40.337Z,19.24
2019-03-28T09:07:40.382Z,19.97
2019-03-28T09:08:40.348Z,20.24
2019-03-28T09:09:40.323Z,20.37
2019-03-28T09:10:40.295Z,20.03
2019-03-28T09:11:40.315Z,20.07
2019-03-28T09:12:40.316Z,19.72
2019-03-28T09:13:40.282Z,19.48
2019-03-28T09:14:40.267Z,19.17
2019-03-28T09:15:44.098Z,18.55
2019-03-28T09:16:40.304Z,17.91
2019-03-28T09:17:40.255Z,17.76
2019-03-28T09:18:40.256Z,17.23
2019-03-28T09:19:40.221Z,16.41
2019-03-28T09:20:40.405Z,15.87
2019-03-28T09:21:40.204Z,15.65
2019-03-28T09:22:40.243Z,15.36
2019-03-28T09:23:40.196Z,15.44
2019-03-28T09:24:40.158Z,15.63
2019-03-28T09:25:40.169Z,15.59
2019-03-28T09:26:40.157Z,15.72
2019-03-28T09:27:40.150Z,15.67
2019-03-28T09:28:40.147Z,15.59
2019-03-28T09:29:40.097Z,15.36
2019-03-28T09:30:48.148Z,15.27
2019-03-28T09:31:41.334Z,15.27
2019-03-28T09:32:40.076Z,15.07
2019-03-28T09:33:40.796Z,15.02
2019-03-28T09:34:40.066Z,14.90
2019-03-28T09:35:40.146Z,14.62
2019-03-28T09:36:40.031Z,14.43
2019-03-28T09:37:40.464Z,14.19
2019-03-28T09:38:40.301Z,14.13
2019-03-28T09:39:39.988Z,14.05
2019-03-28T09:40:40.011Z,13.91
2019-03-28T09:41:39.996Z,13.78
2019-03-28T09:42:39.973Z,13.58
2019-03-28T09:43:54.185Z,13.27
2019-03-28T09:44:40.992Z,13.06
2019-03-28T09:45:39.982Z,13.02
2019-03-28T09:46:39.908Z,13.06
2019-03-28T09:47:39.930Z,13.09
2019-03-28T09:48:39.945Z,12.95
2019-03-28T09:49:39.899Z,13.01
2019-03-28T09:50:40.044Z,13.17
2019-03-28T09:51:39.906Z,13.21
2019-03-28T09:52:39.880Z,13.06
2019-03-28T09:53:39.898Z,13.08
2019-03-28T09:54:39.888Z,13.01
2019-03-28T09:55:39.838Z,13.03
2019-03-28T09:56:39.852Z,13.11
2019-03-28T09:57:39.837Z,13.16
2019-03-28T09:58:39.849Z,13.17
2019-03-28T09:59:39.844Z,13.19
2019-03-28T10:00:39.802Z,13.05
2019-03-28T10:01:39.836Z,12.86
2019-03-28T10:02:39.758Z,12.70
2019-03-28T10:03:39.937Z,12.65
2019-03-28T10:04:39.762Z,12.54
2019-03-28T10:05:39.743Z,12.39
2019-03-28T10:06:39.713Z,12.43
2019-03-28T10:07:39.716Z,12.54
2019-03-28T10:08:39.712Z,12.54
2019-03-28T10:09:39.925Z,12.55
2019-03-28T10:10:39.674Z,12.51
2019-03-28T10:11:39.657Z,12.55
2019-03-28T10:12:39.638Z,12.51
2019-03-28T10:13:39.676Z,12.62
2019-03-28T10:14:39.632Z,12.68
2019-03-28T10:15:39.617Z,12.66
2019-03-28T10:16:40.438Z,12.62
2019-03-28T10:17:42.358Z,12.45
2019-03-28T10:18:39.610Z,12.15
2019-03-28T10:19:39.568Z,12.21
2019-03-28T10:20:39.543Z,12.35
2019-03-28T10:21:39.534Z,12.37
2019-03-28T10:22:39.818Z,12.37
2019-03-28T10:23:39.968Z,12.43
2019-03-28T10:24:39.510Z,12.37
2019-03-28T10:25:40.560Z,12.43
2019-03-28T10:26:39.704Z,12.50
2019-03-28T10:27:39.479Z,12.54
2019-03-28T10:28:39.500Z,12.57
2019-03-28T10:29:39.469Z,12.68
2019-03-28T10:30:39.446Z,12.63
2019-03-28T10:31:39.435Z,12.55
2019-03-28T10:32:39.431Z,12.62
2019-03-28T10:33:39.433Z,12.54
2019-03-28T10:34:39.393Z,12.57
2019-03-28T10:35:39.409Z,12.51
2019-03-28T10:36:39.374Z,12.47
2019-03-28T10:37:39.366Z,12.40
2019-03-28T10:38:39.379Z,12.36
2019-03-28T10:39:39.380Z,12.33
2019-03-28T10:40:39.335Z,12.40
2019-03-28T10:41:39.981Z,12.40
2019-03-28T10:42:39.317Z,12.33
2019-03-28T10:43:39.309Z,12.33
2019-03-28T10:44:39.344Z,12.45
2019-03-28T10:45:39.292Z,12.51
2019-03-28T10:46:39.292Z,12.63
2019-03-28T10:47:39.280Z,12.69
2019-03-28T10:48:39.276Z,12.73
2019-03-28T10:49:39.240Z,12.87
2019-03-28T10:50:45.066Z,12.88
2019-03-28T10:51:40.215Z,12.93
2019-03-28T10:52:39.222Z,13.03
2019-03-28T10:53:39.216Z,13.12
2019-03-28T10:54:39.185Z,13.24
2019-03-28T10:55:39.188Z,13.40
2019-03-28T10:56:51.134Z,13.54
2019-03-28T10:57:40.147Z,13.71
2019-03-28T10:58:39.242Z,13.82
2019-03-28T10:59:39.145Z,13.76
2019-03-28T11:00:39.125Z,13.73
2019-03-28T11:01:49.121Z,13.83
2019-03-28T11:02:40.103Z,14.01
2019-03-28T11:03:39.129Z,14.18
2019-03-28T11:04:39.063Z,14.22
2019-03-28T11:05:39.088Z,14.31
2019-03-28T11:06:39.046Z,14.25
2019-03-28T11:07:39.054Z,14.23
2019-03-28T11:08:39.084Z,14.44
2019-03-28T11:09:39.023Z,14.58
2019-03-28T11:10:39.002Z,14.78
2019-03-28T11:11:39.027Z,14.92
2019-03-28T11:12:39.007Z,14.86
2019-03-28T11:13:39.006Z,14.78
2019-03-28T11:14:39.013Z,14.85
2019-03-28T11:15:38.958Z,14.82
2019-03-28T11:16:38.968Z,14.74
2019-03-28T11:17:38.930Z,14.89
2019-03-28T11:18:39.674Z,14.97
2019-03-28T11:19:38.923Z,15.10
2019-03-28T11:20:40.115Z,15.07
2019-03-28T11:21:38.916Z,15.14
2019-03-28T11:22:38.866Z,15.26
2019-03-28T11:23:38.876Z,15.25
2019-03-28T11:24:38.854Z,15.36
2019-03-28T11:25:38.854Z,15.19
2019-03-28T11:26:38.822Z,15.25
2019-03-28T11:27:38.829Z,15.41
2019-03-28T11:28:39.017Z,15.44
2019-03-28T11:29:38.783Z,15.37
2019-03-28T11:30:38.834Z,15.11
2019-03-28T11:31:46.249Z,15.00
2019-03-28T11:32:39.770Z,15.02
2019-03-28T11:33:38.819Z,15.02
2019-03-28T11:34:38.753Z,15.22
2019-03-28T11:35:38.741Z,15.54
2019-03-28T11:36:38.733Z,15.76
2019-03-28T11:37:38.754Z,15.85
2019-03-28T11:38:38.750Z,15.76
2019-03-28T11:39:39.034Z,15.62
2019-03-28T11:40:39.348Z,15.41
2019-03-28T11:41:38.690Z,15.36
2019-03-28T11:42:38.684Z,15.33
2019-03-28T11:43:38.683Z,15.44
2019-03-28T11:44:38.749Z,15.48
2019-03-28T11:45:38.630Z,15.51
2019-03-28T11:46:38.668Z,15.67
2019-03-28T11:47:38.803Z,15.76
2019-03-28T11:48:38.610Z,15.80
2019-03-28T11:49:38.604Z,15.91
2019-03-28T11:50:38.575Z,16.03
2019-03-28T11:51:38.562Z,16.17
2019-03-28T11:52:38.635Z,16.44
2019-03-28T11:53:38.545Z,16.73
2019-03-28T11:54:38.571Z,17.19
2019-03-28T11:55:38.527Z,17.44
2019-03-28T11:56:38.529Z,17.68
2019-03-28T11:57:38.831Z,17.65
2019-03-28T11:58:38.756Z,17.37
2019-03-28T11:59:38.524Z,16.89
2019-03-28T12:00:38.490Z,16.83
2019-03-28T12:01:38.456Z,16.77
2019-03-28T12:02:38.440Z,16.86
2019-03-28T12:03:38.438Z,16.59
2019-03-28T12:04:38.798Z,16.44
2019-03-28T12:05:38.418Z,16.64
2019-03-28T12:06:38.410Z,16.87
2019-03-28T12:07:38.416Z,17.12
2019-03-28T12:08:38.371Z,17.13
2019-03-28T12:09:38.408Z,17.12
2019-03-28T12:10:38.900Z,17.04
2019-03-28T12:11:38.356Z,16.94
2019-03-28T12:12:38.337Z,16.74
2019-03-28T12:13:44.660Z,16.66
2019-03-28T12:14:39.335Z,16.22
2019-03-28T12:15:38.320Z,16.02
2019-03-28T12:16:38.354Z,15.73
2019-03-28T12:17:38.282Z,15.72
2019-03-28T12:18:38.295Z,15.87
2019-03-28T12:19:38.300Z,15.94
2019-03-28T12:20:38.273Z,16.12
2019-03-28T12:21:38.309Z,16.06
2019-03-28T12:22:38.236Z,15.80
2019-03-28T12:23:38.216Z,15.43
2019-03-28T12:24:38.295Z,15.23
2019-03-28T12:25:38.211Z,15.02
2019-03-28T12:26:38.199Z,15.07
2019-03-28T12:27:38.213Z,15.25
2019-03-28T12:28:38.151Z,15.47
2019-03-28T12:29:38.224Z,15.62
2019-03-28T12:30:38.137Z,15.54
2019-03-28T12:31:38.158Z,15.36
2019-03-28T12:32:38.157Z,15.43
2019-03-28T12:33:38.090Z,15.57
2019-03-28T12:34:38.161Z,15.51
2019-03-28T12:35:38.085Z,15.47
2019-03-28T12:36:38.102Z,15.37
2019-03-28T12:37:38.067Z,15.26
2019-03-28T12:38:38.075Z,15.22
2019-03-28T12:39:38.112Z,15.17
2019-03-28T12:40:38.069Z,15.07
2019-03-28T12:41:38.060Z,15.04
2019-03-28T12:42:38.045Z,15.15
2019-03-28T12:43:38.294Z,15.22
2019-03-28T12:44:38.111Z,15.35
2019-03-28T12:45:38.033Z,15.37
2019-03-28T12:46:38.009Z,15.69
2019-03-28T12:47:42.812Z,15.85
2019-03-28T12:48:38.967Z,15.99
2019-03-28T12:49:37.958Z,16.13
2019-03-28T12:50:37.947Z,16.28
2019-03-28T12:51:37.939Z,16.26
2019-03-28T12:52:37.921Z,16.36
2019-03-28T12:53:37.918Z,16.50
2019-03-28T12:54:37.937Z,16.61
2019-03-28T12:55:37.872Z,16.61
2019-03-28T12:56:38.574Z,16.77
2019-03-28T12:57:37.862Z,16.58
2019-03-28T12:58:37.869Z,16.46
2019-03-28T12:59:37.860Z,16.44
2019-03-28T13:00:37.877Z,16.55
2019-03-28T13:01:37.837Z,16.62
2019-03-28T13:02:37.794Z,16.44
2019-03-28T13:03:45.484Z,16.54
2019-03-28T13:04:38.814Z,16.65
2019-03-28T13:05:37.777Z,16.64
2019-03-28T13:06:37.763Z,16.40